createdAt,value
2022-10-16T00:00:32.412Z,98.94
2022-10-16T00:01:32.134Z,98.69
2022-10-16T00:02:32.269Z,97.41
2022-10-16T00:03:32.211Z,97.11
2022-10-16T00:04:32.221Z,97.21
2022-10-16T00:05:32.314Z,97.46
2022-10-16T00:06:32.343Z,97.31
2022-10-16T00:07:32.271Z,96.91
2022-10-16T00:08:32.244Z,96.75
2022-10-16T00:09:32.093Z,95.73
2022-10-16T00:10:32.251Z,96.69
2022-10-16T00:11:32.103Z,96.38
2022-10-16T00:12:32.345Z,96.38
2022-10-16T00:13:32.073Z,97.55
2022-10-16T00:14:32.147Z,97.45
2022-10-16T00:15:32.102Z,97.24
2022-10-16T00:16:32.016Z,96.84
2022-10-16T00:17:32.132Z,97.14
2022-10-16T00:18:31.902Z,97.34
2022-10-16T00:19:32.072Z,97.24
2022-10-16T00:20:31.963Z,97.45
2022-10-16T00:21:32.261Z,97.45
2022-10-16T00:22:31.323Z,97.34
2022-10-16T00:23:32.048Z,97.14
2022-10-16T00:24:31.924Z,96.84
2022-10-16T00:25:32.063Z,96.73
2022-10-16T00:26:31.921Z,97.40
2022-10-16T00:27:32.103Z,97.09
2022-10-16T00:28:32.026Z,96.84
2022-10-16T00:29:32.052Z,96.84
2022-10-16T00:30:31.934Z,96.94
2022-10-16T00:31:31.773Z,97.24
2022-10-16T00:32:32.083Z,98.06
2022-10-16T00:33:31.962Z,98.57
2022-10-16T00:34:31.912Z,97.14
2022-10-16T00:35:31.733Z,97.04
2022-10-16T00:36:31.902Z,97.04
2022-10-16T00:37:32.482Z,97.14
2022-10-16T00:38:32.109Z,96.73
2022-10-16T00:39:31.753Z,96.33
2022-10-16T00:40:31.912Z,95.81
2022-10-16T00:41:31.088Z,95.61
2022-10-16T00:42:32.452Z,95.61
2022-10-16T00:43:31.294Z,95.81
2022-10-16T00:44:31.013Z,96.12
2022-10-16T00:45:32.555Z,96.63
2022-10-16T00:46:32.052Z,96.63
2022-10-16T00:47:30.982Z,96.53
2022-10-16T00:48:32.432Z,96.43
2022-10-16T00:49:31.022Z,96.43
2022-10-16T00:50:32.552Z,96.58
2022-10-16T00:51:31.527Z,97.19
2022-10-16T00:52:30.942Z,96.98
2022-10-16T00:53:30.922Z,96.78
2022-10-16T00:54:31.703Z,96.98
2022-10-16T00:55:31.792Z,97.80
2022-10-16T00:56:30.902Z,97.39
2022-10-16T00:57:32.434Z,97.95
2022-10-16T00:58:32.643Z,98.00
2022-10-16T00:59:31.672Z,97.29
2022-10-16T01:00:30.903Z,97.70
2022-10-16T01:01:32.583Z,98.11
2022-10-16T01:02:31.422Z,97.80
2022-10-16T01:03:30.823Z,97.39
2022-10-16T01:04:32.932Z,96.37
2022-10-16T01:05:31.894Z,96.17
2022-10-16T01:06:30.794Z,96.73
2022-10-16T01:07:30.802Z,96.94
2022-10-16T01:08:30.775Z,96.73
2022-10-16T01:09:31.454Z,96.43
2022-10-16T01:10:30.813Z,95.92
2022-10-16T01:11:32.004Z,96.37
2022-10-16T01:12:31.653Z,96.33
2022-10-16T01:13:32.525Z,96.17
2022-10-16T01:14:31.533Z,96.06
2022-10-16T01:15:30.742Z,96.58
2022-10-16T01:16:31.644Z,97.19
2022-10-16T01:17:31.446Z,97.45
2022-10-16T01:18:30.664Z,97.55
2022-10-16T01:19:32.053Z,97.75
2022-10-16T01:20:31.074Z,98.16
2022-10-16T01:21:30.683Z,97.86
2022-10-16T01:22:31.973Z,97.96
2022-10-16T01:23:31.435Z,97.04
2022-10-16T01:24:30.603Z,96.53
2022-10-16T01:25:32.625Z,96.43
2022-10-16T01:26:31.336Z,97.14
2022-10-16T01:27:30.688Z,97.24
2022-10-16T01:28:32.302Z,96.94
2022-10-16T01:29:31.522Z,97.45
2022-10-16T01:30:30.543Z,97.55
2022-10-16T01:31:32.066Z,97.45
2022-10-16T01:32:31.015Z,97.75
2022-10-16T01:33:30.512Z,97.96
2022-10-16T01:34:31.274Z,96.53
2022-10-16T01:35:30.493Z,97.04
2022-10-16T01:36:31.994Z,97.04
2022-10-16T01:37:30.985Z,96.73
2022-10-16T01:38:31.284Z,97.34
2022-10-16T01:39:32.142Z,97.55
2022-10-16T01:40:30.444Z,97.81
2022-10-16T01:41:31.113Z,98.02
2022-10-16T01:42:30.475Z,98.43
2022-10-16T01:43:32.385Z,97.20
2022-10-16T01:44:31.302Z,96.48
2022-10-16T01:45:31.143Z,95.62
2022-10-16T01:46:31.233Z,95.26
2022-10-16T01:47:30.434Z,96.38
2022-10-16T01:48:31.953Z,95.87
2022-10-16T01:49:31.142Z,96.75
2022-10-16T01:50:31.004Z,96.44
2022-10-16T01:51:30.343Z,95.73
2022-10-16T01:52:32.004Z,96.14
2022-10-16T01:53:30.853Z,94.50
2022-10-16T01:54:30.294Z,95.06
2022-10-16T01:55:31.474Z,96.23
2022-10-16T01:56:30.339Z,95.93
2022-10-16T01:57:30.264Z,95.73
2022-10-16T01:58:32.214Z,95.36
2022-10-16T01:59:31.249Z,95.26
2022-10-16T02:00:30.273Z,95.47
2022-10-16T02:01:31.493Z,95.47
2022-10-16T02:02:30.344Z,94.75
2022-10-16T02:03:30.267Z,95.47
2022-10-16T02:04:31.693Z,95.47
2022-10-16T02:05:30.504Z,95.87
2022-10-16T02:06:30.183Z,96.18
2022-10-16T02:07:31.483Z,96.79
2022-10-16T02:08:30.443Z,96.79
2022-10-16T02:09:30.873Z,96.38
2022-10-16T02:11:31.473Z,96.18
2022-10-16T02:12:30.314Z,96.28
2022-10-16T02:13:30.233Z,95.87
2022-10-16T02:14:31.512Z,95.47
2022-10-16T02:15:30.204Z,95.97
2022-10-16T02:16:30.073Z,96.18
2022-10-16T02:17:31.487Z,96.28
2022-10-16T02:18:32.018Z,95.97
2022-10-16T02:19:30.087Z,96.38
2022-10-16T02:20:31.554Z,96.59
2022-10-16T02:21:30.793Z,95.47
2022-10-16T02:22:30.643Z,95.97
2022-10-16T02:23:30.084Z,96.18
2022-10-16T02:24:31.547Z,96.28
2022-10-16T02:25:30.485Z,96.28
2022-10-16T02:26:31.552Z,96.69
2022-10-16T02:27:29.964Z,96.79
2022-10-16T02:28:30.857Z,96.48
2022-10-16T02:29:29.953Z,96.48
2022-10-16T02:30:31.854Z,96.69
2022-10-16T02:31:31.432Z,96.38
2022-10-16T02:32:29.913Z,96.69
2022-10-16T02:33:31.603Z,97.09
2022-10-16T02:34:30.515Z,97.20
2022-10-16T02:35:30.832Z,97.09
2022-10-16T02:36:30.653Z,97.36
2022-10-16T02:37:30.833Z,97.66
2022-10-16T02:38:29.853Z,97.66
2022-10-16T02:39:30.533Z,97.56
2022-10-16T02:40:29.823Z,97.61
2022-10-16T02:41:31.473Z,97.40
2022-10-16T02:42:30.752Z,97.71
2022-10-16T02:43:29.812Z,97.81
2022-10-16T02:44:31.013Z,97.87
2022-10-16T02:45:30.542Z,98.11
2022-10-16T02:46:29.783Z,98.11
2022-10-16T02:47:31.235Z,98.52
2022-10-16T02:48:30.013Z,99.04
2022-10-16T02:49:31.294Z,99.44
2022-10-16T02:50:31.627Z,99.75
2022-10-16T02:51:29.724Z,99.99
2022-10-16T02:52:31.033Z,99.99
2022-10-16T02:53:30.052Z,99.99
2022-10-16T02:54:29.693Z,99.99
2022-10-16T02:55:31.093Z,99.99
2022-10-16T02:56:30.386Z,99.99
2022-10-16T02:57:29.797Z,99.99
2022-10-16T02:58:30.324Z,99.99
2022-10-16T02:59:31.564Z,99.99
2022-10-16T03:00:29.635Z,99.99
2022-10-16T03:01:31.148Z,99.99
2022-10-16T03:02:30.072Z,99.99
2022-10-16T03:03:30.404Z,99.99
2022-10-16T03:04:29.603Z,99.99
2022-10-16T03:05:30.426Z,99.99
2022-10-16T03:06:31.673Z,99.99
2022-10-16T03:07:29.563Z,99.99
2022-10-16T03:08:30.344Z,99.99
2022-10-16T03:09:30.293Z,99.99
2022-10-16T03:10:30.334Z,99.99
2022-10-16T03:11:31.334Z,99.99
2022-10-16T03:12:29.502Z,99.99
2022-10-16T03:13:31.054Z,99.99
2022-10-16T03:14:30.045Z,99.99
2022-10-16T03:15:29.464Z,99.99
2022-10-16T03:16:30.982Z,99.99
2022-10-16T03:17:30.153Z,99.99
2022-10-16T03:18:30.953Z,99.99
2022-10-16T03:19:29.444Z,99.99
2022-10-16T03:20:31.013Z,99.99
2022-10-16T03:21:30.004Z,99.99
2022-10-16T03:22:30.054Z,99.99
2022-10-16T03:24:30.052Z,99.99
2022-10-16T03:25:29.363Z,99.99
2022-10-16T03:26:30.783Z,99.99
2022-10-16T03:27:29.558Z,99.99
2022-10-16T03:28:31.014Z,99.99
2022-10-16T03:29:29.964Z,99.99
2022-10-16T03:30:30.053Z,99.99
2022-10-16T03:31:29.303Z,99.99
2022-10-16T03:32:31.017Z,99.99
2022-10-16T03:33:29.825Z,99.99
2022-10-16T03:34:29.282Z,99.99
2022-10-16T03:35:30.562Z,99.99
2022-10-16T03:36:29.342Z,99.99
2022-10-16T03:37:29.473Z,99.99
2022-10-16T03:38:30.553Z,99.99
2022-10-16T03:39:29.512Z,99.99
2022-10-16T03:40:30.243Z,99.99
2022-10-16T03:41:29.892Z,99.99
2022-10-16T03:42:30.112Z,99.99
2022-10-16T03:43:29.172Z,99.99
2022-10-16T03:44:30.043Z,99.99
2022-10-16T03:45:29.196Z,99.99
2022-10-16T03:46:30.043Z,99.99
2022-10-16T03:47:29.619Z,99.99
2022-10-16T03:48:30.543Z,99.99
2022-10-16T03:49:29.834Z,99.99
2022-10-16T03:50:29.112Z,99.99
2022-10-16T03:51:30.803Z,99.99
2022-10-16T03:52:29.893Z,99.99
2022-10-16T03:53:29.912Z,99.99
2022-10-16T03:54:29.073Z,99.99
2022-10-16T03:55:30.492Z,99.99
2022-10-16T03:56:29.967Z,99.99
2022-10-16T03:57:29.288Z,99.99
2022-10-16T03:58:30.464Z,99.99
2022-10-16T03:59:29.184Z,99.99
2022-10-16T04:00:29.012Z,99.99
2022-10-16T04:01:29.984Z,99.99
2022-10-16T04:02:28.983Z,99.99
2022-10-16T04:03:30.474Z,99.99
2022-10-16T04:04:29.372Z,99.99
2022-10-16T04:05:29.813Z,99.99
2022-10-16T04:06:28.941Z,99.99
2022-10-16T04:07:30.542Z,99.99
2022-10-16T04:08:29.362Z,99.99
2022-10-16T04:09:28.951Z,99.99
2022-10-16T04:10:30.984Z,99.99
2022-10-16T04:11:29.954Z,99.99
2022-10-16T04:12:28.892Z,99.99
2022-10-16T04:13:31.037Z,99.99
2022-10-16T04:14:30.373Z,99.99
2022-10-16T04:15:29.524Z,99.99
2022-10-16T04:16:28.851Z,99.99
2022-10-16T04:17:30.402Z,99.99
2022-10-16T04:18:29.693Z,99.99
2022-10-16T04:19:28.853Z,99.99
2022-10-16T04:20:29.622Z,99.99
2022-10-16T04:21:29.544Z,99.99
2022-10-16T04:22:28.775Z,99.99
2022-10-16T04:23:30.522Z,99.99
2022-10-16T04:24:29.582Z,99.99
2022-10-16T04:25:28.792Z,99.99
2022-10-16T04:26:29.367Z,99.99
2022-10-16T04:27:29.924Z,99.99
2022-10-16T04:28:29.474Z,99.99
2022-10-16T04:29:29.662Z,99.99
2022-10-16T04:30:29.423Z,99.99
2022-10-16T04:31:28.713Z,99.99
2022-10-16T04:32:29.565Z,99.99
2022-10-16T04:33:29.503Z,99.99
2022-10-16T04:34:29.412Z,99.99
2022-10-16T04:35:29.566Z,99.99
2022-10-16T04:36:29.386Z,99.99
2022-10-16T04:37:30.015Z,99.99
2022-10-16T04:38:29.474Z,99.99
2022-10-16T04:39:29.433Z,99.99
2022-10-16T04:40:29.994Z,99.99
2022-10-16T04:41:29.263Z,99.99
2022-10-16T04:42:29.545Z,99.99
2022-10-16T04:43:30.228Z,99.99
2022-10-16T04:44:29.384Z,99.99
2022-10-16T04:45:29.236Z,99.99
2022-10-16T04:46:30.402Z,99.99
2022-10-16T04:47:29.498Z,99.99
2022-10-16T04:48:29.363Z,99.99
2022-10-16T04:49:29.212Z,99.99
2022-10-16T04:50:29.453Z,99.99
2022-10-16T04:51:29.291Z,99.99
2022-10-16T04:52:29.357Z,99.99
2022-10-16T04:53:28.522Z,99.99
2022-10-16T04:54:29.302Z,99.99
2022-10-16T04:55:29.194Z,99.99
2022-10-16T04:56:28.423Z,99.99
2022-10-16T04:57:30.483Z,99.99
2022-10-16T04:58:29.433Z,99.99
2022-10-16T04:59:29.673Z,99.99
2022-10-16T05:00:29.092Z,99.99
2022-10-16T05:01:29.235Z,99.99
2022-10-16T05:02:29.190Z,99.99
2022-10-16T05:04:29.024Z,99.99
2022-10-16T05:05:29.172Z,99.99
2022-10-16T05:06:28.322Z,99.99
2022-10-16T05:07:29.467Z,99.99
2022-10-16T05:08:29.792Z,99.99
2022-10-16T05:09:30.222Z,99.99
2022-10-16T05:10:29.025Z,99.99
2022-10-16T05:11:28.893Z,99.99
2022-10-16T05:12:29.113Z,99.99
2022-10-16T05:13:28.872Z,99.99
2022-10-16T05:14:28.253Z,99.99
2022-10-16T05:15:29.593Z,99.99
2022-10-16T05:16:28.455Z,99.99
2022-10-16T05:17:28.597Z,99.99
2022-10-16T05:18:29.452Z,99.99
2022-10-16T05:19:29.136Z,99.99
2022-10-16T05:20:29.204Z,99.99
2022-10-16T05:21:29.845Z,99.99
2022-10-16T05:22:29.602Z,99.99
2022-10-16T05:23:30.164Z,99.99
2022-10-16T05:24:28.164Z,99.99
2022-10-16T05:25:28.145Z,99.99
2022-10-16T05:26:28.132Z,99.99
2022-10-16T05:27:29.485Z,99.99
2022-10-16T05:28:28.205Z,99.99
2022-10-16T05:29:29.614Z,99.99
2022-10-16T05:30:28.073Z,99.99
2022-10-16T05:31:29.674Z,99.99
2022-10-16T05:32:28.723Z,99.99
2022-10-16T05:33:29.752Z,99.99
2022-10-16T05:34:28.734Z,99.99
2022-10-16T05:35:28.054Z,99.99
2022-10-16T05:36:28.706Z,99.99
2022-10-16T05:37:28.571Z,99.99
2022-10-16T05:38:28.803Z,99.99
2022-10-16T05:39:28.833Z,99.99
2022-10-16T05:40:28.032Z,99.99
2022-10-16T05:41:29.521Z,99.99
2022-10-16T05:42:28.523Z,99.99
2022-10-16T05:43:28.002Z,99.99
2022-10-16T05:44:30.016Z,99.99
2022-10-16T05:45:28.564Z,99.99
2022-10-16T05:46:28.697Z,99.99
2022-10-16T05:47:28.474Z,99.99
2022-10-16T05:48:29.885Z,99.99
2022-10-16T05:49:28.558Z,99.99
2022-10-16T05:50:28.784Z,99.99
2022-10-16T05:51:27.873Z,99.99
2022-10-16T05:52:29.994Z,99.99
2022-10-16T05:53:28.903Z,99.99
2022-10-16T05:54:27.843Z,99.99
2022-10-16T05:55:29.601Z,99.99
2022-10-16T05:56:28.474Z,99.99
2022-10-16T05:57:28.872Z,99.99
2022-10-16T05:58:27.843Z,99.99
2022-10-16T05:59:28.583Z,99.99
2022-10-16T06:00:27.772Z,99.99
2022-10-16T06:01:28.991Z,99.99
2022-10-16T06:02:28.573Z,99.99
2022-10-16T06:03:27.742Z,99.99
2022-10-16T06:04:29.082Z,99.99
2022-10-16T06:05:28.023Z,99.99
2022-10-16T06:06:27.714Z,99.99
2022-10-16T06:07:29.101Z,99.99
2022-10-16T06:08:28.422Z,99.99
2022-10-16T06:09:27.737Z,99.99
2022-10-16T06:10:29.092Z,99.99
2022-10-16T06:11:28.022Z,99.99
2022-10-16T06:12:27.658Z,99.99
2022-10-16T06:13:28.253Z,99.99
2022-10-16T06:14:28.446Z,99.99
2022-10-16T06:15:27.623Z,99.99
2022-10-16T06:16:29.123Z,99.99
2022-10-16T06:17:28.539Z,99.99
2022-10-16T06:18:28.415Z,99.99
2022-10-16T06:19:28.284Z,99.99
2022-10-16T06:20:28.430Z,99.99
2022-10-16T06:21:27.553Z,99.99
2022-10-16T06:22:28.381Z,99.99
2022-10-16T06:23:28.273Z,99.99
2022-10-16T06:24:27.583Z,99.99
2022-10-16T06:25:28.213Z,99.99
2022-10-16T06:26:28.335Z,99.99
2022-10-16T06:27:27.817Z,99.99
2022-10-16T06:28:28.460Z,99.99
2022-10-16T06:29:27.494Z,99.99
2022-10-16T06:30:29.062Z,99.99
2022-10-16T06:31:27.982Z,99.99
2022-10-16T06:32:27.447Z,99.99
2022-10-16T06:33:28.356Z,99.99
2022-10-16T06:34:27.447Z,99.99
2022-10-16T06:35:28.293Z,99.81
2022-10-16T06:36:28.085Z,99.99
2022-10-16T06:37:28.515Z,99.99
2022-10-16T06:38:27.376Z,99.99
2022-10-16T06:39:29.579Z,99.99
2022-10-16T06:40:28.452Z,99.99
2022-10-16T06:41:27.362Z,99.99
2022-10-16T06:42:29.196Z,99.99
2022-10-16T06:43:27.953Z,99.99
2022-10-16T06:44:28.085Z,99.41
2022-10-16T06:45:27.982Z,99.99
2022-10-16T06:46:27.322Z,99.91
2022-10-16T06:47:28.071Z,99.99
2022-10-16T06:48:28.084Z,99.99
2022-10-16T06:49:27.954Z,99.99
2022-10-16T06:50:28.152Z,99.99
2022-10-16T06:51:27.923Z,99.99
2022-10-16T06:52:28.493Z,99.99
2022-10-16T06:53:27.902Z,99.99
2022-10-16T06:54:28.042Z,99.99
2022-10-16T06:55:28.073Z,99.99
2022-10-16T06:56:28.046Z,99.99
2022-10-16T06:57:27.932Z,99.99
2022-10-16T06:58:28.003Z,99.99
2022-10-16T06:59:27.184Z,99.99
2022-10-16T07:00:27.905Z,99.99
2022-10-16T07:01:28.008Z,99.99
2022-10-16T07:02:28.176Z,99.99
2022-10-16T07:03:27.142Z,99.99
2022-10-16T07:04:27.784Z,99.99
2022-10-16T07:05:27.913Z,99.99
2022-10-16T07:06:27.824Z,99.99
2022-10-16T07:07:27.872Z,99.99
2022-10-16T07:08:27.763Z,99.99
2022-10-16T07:09:27.142Z,99.99
2022-10-16T07:10:27.793Z,99.99
2022-10-16T07:11:27.892Z,99.99
2022-10-16T07:12:27.584Z,99.99
2022-10-16T07:13:28.682Z,99.99
2022-10-16T07:14:27.562Z,99.99
2022-10-16T07:15:27.803Z,99.99
2022-10-16T07:16:27.786Z,99.01
2022-10-16T07:17:27.643Z,98.03
2022-10-16T07:18:27.786Z,98.44
2022-10-16T07:19:31.897Z,99.16
2022-10-16T07:20:27.723Z,99.26
2022-10-16T07:21:27.572Z,99.36
2022-10-16T07:22:28.172Z,99.26
2022-10-16T07:23:27.612Z,99.05
2022-10-16T07:24:27.673Z,99.16
2022-10-16T07:25:27.612Z,99.05
2022-10-16T07:26:27.693Z,99.10
2022-10-16T07:27:27.695Z,99.20
2022-10-16T07:28:27.769Z,98.59
2022-10-16T07:29:27.614Z,99.00
2022-10-16T07:30:27.764Z,99.91
2022-10-16T07:31:27.612Z,99.97
2022-10-16T07:32:27.801Z,99.66
2022-10-16T07:33:27.655Z,99.56
2022-10-16T07:34:27.475Z,99.36
2022-10-16T07:35:26.822Z,99.26
2022-10-16T07:36:27.481Z,99.77
2022-10-16T07:37:28.003Z,99.99
2022-10-16T07:38:27.413Z,99.99
2022-10-16T07:39:26.822Z,98.91
2022-10-16T07:40:26.753Z,99.62
2022-10-16T07:41:27.832Z,99.06
2022-10-16T07:42:26.729Z,99.06
2022-10-16T07:43:27.509Z,99.06
2022-10-16T07:44:27.538Z,98.71
2022-10-16T07:45:27.529Z,97.80
2022-10-16T07:46:27.420Z,97.89
2022-10-16T07:47:27.666Z,97.08
2022-10-16T07:48:26.669Z,97.75
2022-10-16T07:49:27.369Z,96.23
2022-10-16T07:50:27.408Z,96.23
2022-10-16T07:51:27.283Z,96.43
2022-10-16T07:52:27.439Z,95.92
2022-10-16T07:53:27.371Z,95.01
2022-10-16T07:54:27.471Z,95.67
2022-10-16T07:55:27.360Z,95.87
2022-10-16T07:56:27.439Z,94.56
2022-10-16T07:57:27.757Z,94.20
2022-10-16T07:58:27.382Z,93.89
2022-10-16T07:59:27.348Z,95.06
2022-10-16T08:00:27.459Z,95.47
2022-10-16T08:01:26.612Z,96.14
2022-10-16T08:02:27.129Z,93.60
2022-10-16T08:03:27.289Z,94.82
2022-10-16T08:04:26.499Z,95.22
2022-10-16T08:05:27.369Z,94.26
2022-10-16T08:06:28.070Z,92.38
2022-10-16T08:07:27.677Z,92.02
2022-10-16T08:08:27.149Z,94.29
2022-10-16T08:09:27.358Z,94.86
2022-10-16T08:10:27.200Z,95.78
2022-10-16T08:11:27.238Z,95.67
2022-10-16T08:12:27.199Z,95.42
2022-10-16T08:13:27.221Z,93.90
2022-10-16T08:14:27.100Z,91.67
2022-10-16T08:15:27.438Z,92.22
2022-10-16T08:16:27.112Z,93.44
2022-10-16T08:17:27.535Z,93.95
2022-10-16T08:18:27.179Z,94.31
2022-10-16T08:19:26.970Z,94.96
2022-10-16T08:20:27.179Z,94.35
2022-10-16T08:21:27.029Z,95.47
2022-10-16T08:22:26.339Z,94.05
2022-10-16T08:23:27.649Z,95.63
2022-10-16T08:24:26.579Z,94.51
2022-10-16T08:25:26.969Z,96.03
2022-10-16T08:26:26.319Z,92.58
2022-10-16T08:27:27.230Z,94.46
2022-10-16T08:28:27.118Z,95.79
2022-10-16T08:29:26.240Z,94.02
2022-10-16T08:30:27.159Z,94.32
2022-10-16T08:31:28.025Z,91.38
2022-10-16T08:32:27.653Z,94.27
2022-10-16T08:33:26.199Z,91.74
2022-10-16T08:34:26.789Z,91.78
2022-10-16T08:35:26.951Z,93.35
2022-10-16T08:36:26.890Z,94.06
2022-10-16T08:37:27.019Z,94.67
2022-10-16T08:38:26.809Z,94.26
2022-10-16T08:39:26.129Z,92.84
2022-10-16T08:40:26.794Z,93.80
2022-10-16T08:41:26.189Z,93.80
2022-10-16T08:42:28.546Z,94.10
2022-10-16T08:43:27.589Z,94.37
2022-10-16T08:44:26.099Z,93.25
2022-10-16T08:45:27.619Z,93.96
2022-10-16T08:46:26.899Z,93.41
2022-10-16T08:47:26.139Z,93.45
2022-10-16T08:48:26.809Z,92.24
2022-10-16T08:49:26.578Z,92.89
2022-10-16T08:50:26.898Z,95.63
2022-10-16T08:51:26.757Z,95.42
2022-10-16T08:52:27.282Z,94.87
2022-10-16T08:53:25.991Z,95.38
2022-10-16T08:54:27.570Z,94.26
2022-10-16T08:55:26.809Z,94.32
2022-10-16T08:56:26.859Z,94.12
2022-10-16T08:57:27.799Z,94.02
2022-10-16T08:58:26.879Z,93.26
2022-10-16T08:59:25.949Z,92.76
2022-10-16T09:00:27.641Z,93.06
2022-10-16T09:01:26.862Z,92.55
2022-10-16T09:02:27.257Z,91.90
2022-10-16T09:03:26.599Z,93.12
2022-10-16T09:04:25.879Z,92.00
2022-10-16T09:05:27.169Z,91.09
2022-10-16T09:06:27.500Z,91.80
2022-10-16T09:07:26.898Z,91.74
2022-10-16T09:08:26.489Z,92.45
2022-10-16T09:09:25.829Z,91.38
2022-10-16T09:10:27.199Z,92.40
2022-10-16T09:11:26.102Z,93.67
2022-10-16T09:12:26.142Z,92.76
2022-10-16T09:13:26.689Z,91.64
2022-10-16T09:14:25.779Z,91.17
2022-10-16T09:15:27.019Z,93.10
2022-10-16T09:16:26.489Z,93.00
2022-10-16T09:17:25.919Z,93.71
2022-10-16T09:18:30.095Z,92.80
2022-10-16T09:19:26.100Z,92.40
2022-10-16T09:20:26.459Z,92.05
2022-10-16T09:21:25.718Z,92.49
2022-10-16T09:22:27.150Z,93.00
2022-10-16T09:23:26.420Z,93.35
2022-10-16T09:24:27.146Z,94.32
2022-10-16T09:25:26.325Z,94.58
2022-10-16T09:26:26.464Z,92.96
2022-10-16T09:27:26.607Z,92.76
2022-10-16T09:28:26.844Z,92.76
2022-10-16T09:29:25.637Z,92.51
2022-10-16T09:30:26.361Z,91.80
2022-10-16T09:31:26.319Z,91.64
2022-10-16T09:32:25.578Z,92.21
2022-10-16T09:33:27.270Z,91.09
2022-10-16T09:34:26.469Z,91.09
2022-10-16T09:35:26.394Z,91.15
2022-10-16T09:36:26.190Z,90.60
2022-10-16T09:37:26.496Z,90.66
2022-10-16T09:38:26.270Z,90.31
2022-10-16T09:39:26.450Z,88.79
2022-10-16T09:40:26.190Z,89.20
2022-10-16T09:41:26.301Z,87.58
2022-10-16T09:42:26.141Z,89.87
2022-10-16T09:43:25.481Z,86.43
2022-10-16T09:44:26.232Z,88.25
2022-10-16T09:45:25.460Z,87.44
2022-10-16T09:46:26.158Z,86.87
2022-10-16T09:47:26.778Z,87.79
2022-10-16T09:48:26.180Z,89.00
2022-10-16T09:49:25.451Z,87.28
2022-10-16T09:50:27.161Z,86.83
2022-10-16T09:51:26.020Z,87.68
2022-10-16T09:52:25.379Z,88.33
2022-10-16T09:53:26.739Z,90.01
2022-10-16T09:54:26.142Z,88.70
2022-10-16T09:55:25.403Z,89.39
2022-10-16T09:56:26.550Z,89.79
2022-10-16T09:57:25.866Z,91.35
2022-10-16T09:58:26.172Z,90.95
2022-10-16T09:59:25.970Z,90.70
2022-10-16T10:00:26.221Z,91.00
2022-10-16T10:01:25.294Z,90.20
2022-10-16T10:02:26.110Z,90.36
2022-10-16T10:03:25.271Z,89.24
2022-10-16T10:04:26.099Z,88.09
2022-10-16T10:05:25.250Z,89.30
2022-10-16T10:06:25.919Z,87.84
2022-10-16T10:07:25.430Z,87.95
2022-10-16T10:08:26.559Z,87.84
2022-10-16T10:09:25.471Z,87.81
2022-10-16T10:10:25.870Z,86.19
2022-10-16T10:11:26.100Z,86.93
2022-10-16T10:12:26.987Z,85.88
2022-10-16T10:13:26.042Z,86.59
2022-10-16T10:14:25.170Z,87.19
2022-10-16T10:15:26.658Z,85.99
2022-10-16T10:16:25.599Z,87.04
2022-10-16T10:17:25.139Z,86.19
2022-10-16T10:18:25.930Z,86.79
2022-10-16T10:19:27.973Z,85.78
2022-10-16T10:20:25.098Z,86.13
2022-10-16T10:21:25.163Z,87.64
2022-10-16T10:22:26.809Z,85.82
2022-10-16T10:23:25.679Z,87.44
2022-10-16T10:24:25.060Z,86.69
2022-10-16T10:25:26.631Z,86.08
2022-10-16T10:26:25.579Z,85.88
2022-10-16T10:27:25.019Z,84.93
2022-10-16T10:28:26.607Z,86.15
2022-10-16T10:29:25.479Z,84.83
2022-10-16T10:30:24.991Z,85.44
2022-10-16T10:31:26.672Z,85.58
2022-10-16T10:32:26.154Z,86.43
2022-10-16T10:33:24.970Z,86.29
2022-10-16T10:34:26.672Z,86.19
2022-10-16T10:35:25.721Z,86.25
2022-10-16T10:36:24.930Z,85.05
2022-10-16T10:37:26.979Z,83.10
2022-10-16T10:38:26.339Z,82.76
2022-10-16T10:39:24.963Z,81.15
2022-10-16T10:40:26.332Z,82.98
2022-10-16T10:41:27.913Z,80.08
2022-10-16T10:42:25.307Z,78.70
2022-10-16T10:43:24.881Z,75.71
2022-10-16T10:44:26.430Z,74.57
2022-10-16T10:45:25.490Z,75.21
2022-10-16T10:46:24.839Z,74.81
2022-10-16T10:47:25.710Z,75.82
2022-10-16T10:48:24.861Z,75.15
2022-10-16T10:49:26.270Z,75.45
2022-10-16T10:50:25.321Z,74.85
2022-10-16T10:51:24.800Z,75.25
2022-10-16T10:52:26.502Z,74.74
2022-10-16T10:53:25.460Z,74.98
2022-10-16T10:54:24.730Z,76.56
2022-10-16T10:55:26.100Z,75.51
2022-10-16T10:56:25.670Z,75.84
2022-10-16T10:57:25.476Z,73.13
2022-10-16T10:58:25.530Z,72.74
2022-10-16T10:59:24.702Z,73.47
2022-10-16T11:00:26.260Z,72.87
2022-10-16T11:01:25.488Z,74.31
2022-10-16T11:02:25.196Z,77.02
2022-10-16T11:03:26.159Z,75.51
2022-10-16T11:04:25.612Z,75.79
2022-10-16T11:05:24.639Z,75.59
2022-10-16T11:06:26.179Z,75.62
2022-10-16T11:07:25.601Z,76.29
2022-10-16T11:08:24.639Z,75.15
2022-10-16T11:09:26.190Z,74.85
2022-10-16T11:10:25.410Z,75.49
2022-10-16T11:11:24.590Z,75.32
2022-10-16T11:12:26.179Z,76.73
2022-10-16T11:13:25.459Z,76.43
2022-10-16T11:14:24.539Z,75.68
2022-10-16T11:15:26.680Z,77.00
2022-10-16T11:16:25.559Z,75.68
2022-10-16T11:17:24.936Z,75.68
2022-10-16T11:18:24.590Z,76.19
2022-10-16T11:19:26.531Z,76.35
2022-10-16T11:20:25.929Z,77.06
2022-10-16T11:21:28.822Z,75.45
2022-10-16T11:22:25.380Z,76.09
2022-10-16T11:23:25.158Z,76.63
2022-10-16T11:24:24.420Z,77.57
2022-10-16T11:25:25.730Z,77.81
2022-10-16T11:26:25.289Z,79.22
2022-10-16T11:27:24.717Z,78.35
2022-10-16T11:28:29.324Z,79.86
2022-10-16T11:29:25.232Z,79.46
2022-10-16T11:30:25.302Z,79.02
2022-10-16T11:31:24.370Z,78.85
2022-10-16T11:32:25.240Z,79.66
2022-10-16T11:33:24.412Z,79.82
2022-10-16T11:34:25.736Z,79.16
2022-10-16T11:35:24.759Z,78.81
2022-10-16T11:36:24.301Z,79.42
2022-10-16T11:37:25.462Z,78.38
2022-10-16T11:38:24.291Z,77.67
2022-10-16T11:39:25.697Z,77.61
2022-10-16T11:40:24.670Z,78.85
2022-10-16T11:41:24.270Z,78.85
2022-10-16T11:42:25.650Z,79.16
2022-10-16T11:43:24.438Z,79.16
2022-10-16T11:44:25.019Z,78.81
2022-10-16T11:45:24.222Z,78.51
2022-10-16T11:46:25.618Z,78.61
2022-10-16T11:47:46.586Z,79.22
2022-10-16T11:48:25.659Z,78.91
2022-10-16T11:49:24.190Z,78.47
2022-10-16T11:50:25.703Z,78.31
2022-10-16T11:51:24.400Z,79.11
2022-10-16T11:52:24.132Z,77.91
2022-10-16T11:53:25.005Z,78.11
2022-10-16T11:54:24.132Z,78.17
2022-10-16T11:55:24.870Z,77.87
2022-10-16T11:56:24.090Z,77.67
2022-10-16T11:57:26.266Z,77.87
2022-10-16T11:58:25.328Z,77.97
2022-10-16T11:59:24.200Z,77.67
2022-10-16T12:00:25.591Z,77.23
2022-10-16T12:02:25.168Z,77.07
2022-10-16T12:03:24.130Z,77.67
2022-10-16T12:04:25.690Z,76.23
2022-10-16T12:05:24.559Z,75.92
2022-10-16T12:06:24.060Z,75.72
2022-10-16T12:07:24.729Z,75.62
2022-10-16T12:08:23.980Z,75.72
2022-10-16T12:09:25.779Z,75.92
2022-10-16T12:10:27.447Z,76.03
2022-10-16T12:11:23.956Z,75.99
2022-10-16T12:12:24.841Z,75.42
2022-10-16T12:13:23.940Z,75.99
2022-10-16T12:14:25.770Z,75.38
2022-10-16T12:15:40.635Z,75.49
2022-10-16T12:16:23.889Z,76.15
2022-10-16T12:17:25.211Z,75.21
2022-10-16T12:18:23.972Z,74.81
2022-10-16T12:19:23.890Z,74.51
2022-10-16T12:20:25.221Z,74.11
2022-10-16T12:21:24.131Z,74.31
2022-10-16T12:22:24.074Z,73.87
2022-10-16T12:23:25.630Z,74.18
2022-10-16T12:24:24.580Z,73.64
2022-10-16T12:25:25.415Z,73.33
2022-10-16T12:26:24.591Z,72.53
2022-10-16T12:27:23.790Z,72.77
2022-10-16T12:28:25.409Z,73.57
2022-10-16T12:29:24.473Z,73.57
2022-10-16T12:30:23.771Z,74.57
2022-10-16T12:31:25.297Z,74.07
2022-10-16T12:32:48.654Z,73.07
2022-10-16T12:33:23.750Z,73.44
2022-10-16T12:34:25.191Z,72.67
2022-10-16T12:35:24.159Z,72.74
2022-10-16T12:36:25.084Z,72.94
2022-10-16T12:37:23.690Z,73.44
2022-10-16T12:38:25.230Z,72.13
2022-10-16T12:39:24.222Z,72.03
2022-10-16T12:40:23.678Z,73.17
2022-10-16T12:41:25.160Z,73.47
2022-10-16T12:42:24.339Z,74.61
2022-10-16T12:43:27.449Z,74.81
2022-10-16T12:44:24.264Z,74.74
2022-10-16T12:45:23.589Z,75.45
2022-10-16T12:46:25.252Z,75.71
2022-10-16T12:47:24.161Z,74.61
2022-10-16T12:48:29.111Z,74.51
2022-10-16T12:49:24.560Z,75.01
2022-10-16T12:50:23.559Z,74.98
2022-10-16T12:51:25.090Z,74.48
2022-10-16T12:52:24.687Z,74.57
2022-10-16T12:53:23.510Z,75.21
2022-10-16T12:54:25.699Z,75.62
2022-10-16T12:55:24.700Z,76.76
2022-10-16T12:56:24.271Z,76.65